Detall de PIREP

Printer-friendly versionPDF version

[2009/10/15 07:24:00]
Flight IATA:CT2104
Pilot Number:041
Company ICAO:CAT
Aircraft Type:AT72/F
PAX:49
Departing Airport: LEVC
Destination Airport: LEBB
Alternate Airport:LEVT
Online: VATSIM
Route:CENTA2B A33 PRADO A33 CJN A33 HORTA B11 RBO B11 OSTIX B11 GASMO B11 DGO B11 VRA B11 BLV MAPAX1K
Flight Level:FL190
No Slew and time accel
No pause
Crash detect
Detect pilot in Cockpit between each 30 and 45 minutes
07:24 Zero fuel Weight: 40583 Lbs, Fuel Weight: 6679 Lbs
07:24 VATSIM:LEVC 150700Z 02006KT 330V050 9999 FEW020 BKN025 18/16 Q1016 NOSIG
07:24 VATSIM:LEBB 150700Z 09004KT 6000 FEW005 SCT030 06/05 Q1025 NOSIG
07:24 VOICE CATALONIAN
07:27 Parking Brakes off
07:34 Take-off
07:34 Take off Weight: 47164 Lbs
07:34 Wind: 032º @ 005 Knots Heading: 113º
07:34 POS N39º 29´ 18´´ W000º 28´ 45´´
07:34 Gear Up: 134 Knots
07:34 Flaps:1 at 134 Knots
07:35 Flaps:0 at 146 Knots

07:49 Wind:338º@021 Knots Heading: 302º Ground Speed: 255 Knots Altitude 13877 ft
07:53 TOC
07:53 Fuel Weight: 5845 Lb
08:04 Wind:349º@014 Knots Heading: 300º Ground Speed: 272 Knots Altitude 19137 ft
08:12 TOD
08:12 Fuel Weight: 5334 Lb
08:19 Wind:349º@014 Knots Heading: 008º Ground Speed: 269 Knots Altitude 18136 ft
08:34 Wind:017º@023 Knots Heading: 010º Ground Speed: 267 Knots Altitude 18313 ft
08:49 Wind:060º@014 Knots Heading: 000º Ground Speed: 234 Knots Altitude 10275 ft
09:04 Wind:059º@014 Knots Heading: 173º Ground Speed: 233 Knots Altitude 5203 ft
09:11 Flaps:1 at 186 Knots
09:11 Gear Down: 178 Knots
09:11 Flaps:2 at 165 Knots
09:13 TouchDown:Rate -113 ft/min Speed: 101 Knots
09:13 VATSIM:LEBB 150900Z VRB02KT 7000 FEW035 11/08 Q1025 NOSIG
09:13 Land
09:13 Wind:074º@001 Knots
09:13 Heading: 295º
09:13 Flight Duration: 01:39
09:13 Landing Weight:
44545 Lbs
09:13 POS N43º 18´ 11´´ W002º 54´ 58´´
09:17 Parking brakes on
09:17 Block to Block Duration: 01:50
09:17 Final Fuel: 3930 Lbls
09:17 Spent Fuel: 2749 Lbls
09:17 Flight Length: 417 NM
09:17 TOD Land Length: 252 NM

Exportar CSV

Powered by Drupal - Modified by Danger4k